Hlavní strana
METAR-TAF:

METAR-TAF

Letiště :

Letiště Larnaka

Larnaka, Kypr

zeměpisná šířka: 34-53N, zeměpisná délka: 033-38E, výška: 2 m

Aktuální stav počasí

Zpráva byla vytvořena před 35 minutami, v 21:00 UTC
Severoseverozápadní vítr 8 kt
Teplota 28°C
Vlhkost vzduchu 30%
Tlak 1009 hPa
Viditelnost 10 km a více
Žádná oblačnost pod 1500 m, nevyskytují se cumulonimby.

METAR: LCLK 182100Z 33008KT CAVOK 28/09 Q1009 NOSIG

Čas: 00:35 (21:35 UTC)

Předpověď počasí

Zpráva byla vytvořena před 4 hodinami a 5 minutami, v 17:30 UTC
Předpověď platná od 18 v 18 UTC do 19 v 18 UTC
Severozápadní vítr 6 kt
Viditelnost 10 km a více
Skoro jasno ve výšce 3000 ft
Změna
od 19 v 08 UTC do 19 v 12 UTC
Jihojihozápadní vítr 12 kt
Změna
od 19 v 16 UTC do 19 v 18 UTC
Západoseverozápadní vítr 6 kt

TAF: LCLK 181730Z 1818/1918 31006KT 9999 FEW030 BECMG 1908/1912 20012KT BECMG 1916/1918 30006KT

Stav a předpovědi počasí z více než 4 000 letišť (zprávy METAR a TAF).

Červené a žluté tečky na mapě představují dostupné meteorologické stanice.

Když kurzor umístíte na tečku, zobrazí se název stanice.

Pak kliknutím zobrazíte stav a předpověď počasí.

Chcete-li změnit mapu, kliknutím na zelené tlačítko se znaménkem +mapu přiblížíte, kliknutím na zelené tlačítko se znaménkem – mapu oddálíte a kliknutím na zelené šipky přejdete na sousední mapy.


METAR-TAF: